Time;durP1;ratioP1;P1;durP2;ratioP2;P2;SDS_P1;SDS_P2;PMS_P1;PMS_P2;Temp;Humidity;BMP_temperature;BMP_pressure;BME280_temperature;BME280_humidity;BME280_pressure;Samples;Min_cycle;Max_cycle;Signal;HPM_P1;HPM_P2
2023/09/09 00:00:35;;;;;;;6.80;6.20;;;;;;;;;;4952879;28;20187;-74
2023/09/09 00:03:00;;;;;;;7.37;6.70;;;;;;;;;;4966439;28;20173;-74
2023/09/09 00:05:29;;;;;;;7.73;7.03;;;;;;;;;;4951901;28;20184;-74
2023/09/09 00:07:54;;;;;;;7.73;6.90;;;;;;;;;;4954700;28;20186;-75
2023/09/09 00:10:19;;;;;;;8.43;6.70;;;;;;;;;;4965537;28;20178;-74
2023/09/09 00:12:44;;;;;;;8.33;7.53;;;;;;;;;;4958573;28;20290;-74
2023/09/09 00:15:10;;;;;;;8.13;7.33;;;;;;;;;;4953430;28;20270;-75
2023/09/09 00:17:35;;;;;;;7.53;6.83;;;;;;;;;;4955645;28;20215;-74
2023/09/09 00:20:00;;;;;;;8.07;7.10;;;;;;;;;;4952274;28;20179;-74
2023/09/09 00:22:26;;;;;;;10.37;6.87;;;;;;;;;;4973769;28;20182;-75
2023/09/09 00:24:51;;;;;;;8.77;6.73;;;;;;;;;;4973244;28;20268;-74
2023/09/09 00:27:16;;;;;;;12.07;7.37;;;;;;;;;;4975239;28;20223;-74
2023/09/09 00:29:42;;;;;;;7.37;6.67;;;;;;;;;;4957055;28;20264;-74
2023/09/09 00:32:07;;;;;;;7.37;6.67;;;;;;;;;;4966317;28;20167;-74
2023/09/09 00:34:33;;;;;;;7.80;7.10;;;;;;;;;;4949868;28;20184;-75
2023/09/09 00:36:58;;;;;;;8.23;7.43;;;;;;;;;;4952549;28;20177;-74
2023/09/09 00:39:23;;;;;;;7.43;6.73;;;;;;;;;;4972840;28;20195;-75
2023/09/09 00:41:49;;;;;;;8.37;7.00;;;;;;;;;;4973137;28;20179;-74
2023/09/09 00:44:14;;;;;;;8.60;7.53;;;;;;;;;;4955716;28;20180;-74
2023/09/09 00:46:39;;;;;;;7.30;6.70;;;;;;;;;;4970245;28;20979;-75
2023/09/09 00:49:04;;;;;;;8.53;6.90;;;;;;;;;;4968941;28;20276;-75
2023/09/09 00:51:30;;;;;;;7.07;6.37;;;;;;;;;;4969646;28;20192;-75
2023/09/09 00:53:56;;;;;;;7.70;6.90;;;;;;;;;;4953375;28;20195;-75
2023/09/09 00:56:21;;;;;;;7.33;6.63;;;;;;;;;;4972918;28;20171;-75
2023/09/09 00:58:46;;;;;;;7.83;7.13;;;;;;;;;;4970000;28;20211;-74
2023/09/09 01:01:12;;;;;;;7.43;6.83;;;;;;;;;;4968247;28;20268;-74
2023/09/09 01:03:37;;;;;;;7.60;6.80;;;;;;;;;;4967235;28;20180;-74
2023/09/09 01:06:03;;;;;;;7.60;7.00;;;;;;;;;;4968771;28;20180;-74
2023/09/09 01:08:29;;;;;;;8.30;7.37;;;;;;;;;;4942657;28;20210;-74
2023/09/09 01:10:54;;;;;;;7.60;6.80;;;;;;;;;;4954693;28;20255;-74
2023/09/09 01:13:20;;;;;;;7.87;6.77;;;;;;;;;;4953830;28;20186;-75
2023/09/09 01:15:45;;;;;;;8.00;6.73;;;;;;;;;;4966452;28;20253;-75
2023/09/09 01:18:11;;;;;;;9.03;7.60;;;;;;;;;;4949966;28;20201;-74
2023/09/09 01:20:38;;;;;;;7.90;7.03;;;;;;;;;;4953268;28;20173;-74
2023/09/09 01:23:03;;;;;;;7.50;6.73;;;;;;;;;;4954855;28;20181;-74
2023/09/09 01:25:28;;;;;;;10.23;7.37;;;;;;;;;;4952228;28;20180;-74
2023/09/09 01:27:53;;;;;;;7.63;7.00;;;;;;;;;;4953790;28;20183;-74
2023/09/09 01:30:18;;;;;;;7.80;7.10;;;;;;;;;;4959286;28;20195;-74
2023/09/09 01:32:44;;;;;;;7.23;6.63;;;;;;;;;;4955447;28;20189;-75
2023/09/09 01:35:09;;;;;;;8.00;7.30;;;;;;;;;;4976700;23;20256;-75
2023/09/09 01:37:34;;;;;;;7.27;6.57;;;;;;;;;;4959066;28;20306;-75
2023/09/09 01:40:08;;;;;;;7.43;6.77;;;;;;;;;;4964564;28;20191;-75
2023/09/09 01:42:34;;;;;;;8.70;7.07;;;;;;;;;;4949002;28;20178;-74
2023/09/09 01:44:59;;;;;;;8.00;7.30;;;;;;;;;;4954416;28;20230;-74
2023/09/09 01:47:24;;;;;;;8.17;7.37;;;;;;;;;;4946785;28;20170;-74
2023/09/09 01:49:49;;;;;;;8.17;7.30;;;;;;;;;;4954618;28;20217;-74
2023/09/09 01:52:14;;;;;;;8.00;7.20;;;;;;;;;;4952682;28;20212;-75
2023/09/09 01:54:40;;;;;;;11.97;7.73;;;;;;;;;;4950711;28;20199;-74
2023/09/09 01:57:05;;;;;;;8.33;7.53;;;;;;;;;;4971044;28;20183;-74
2023/09/09 01:59:30;;;;;;;7.63;6.77;;;;;;;;;;4949882;28;20199;-74
2023/09/09 02:01:56;;;;;;;9.13;7.30;;;;;;;;;;4950756;28;21277;-75
2023/09/09 02:04:21;;;;;;;7.40;6.70;;;;;;;;;;4955789;28;20266;-75
2023/09/09 02:06:46;;;;;;;7.60;6.87;;;;;;;;;;4955470;28;20206;-74
2023/09/09 02:09:12;;;;;;;8.07;7.27;;;;;;;;;;4953178;28;20180;-74
2023/09/09 02:11:37;;;;;;;7.77;7.10;;;;;;;;;;4953955;28;20183;-75
2023/09/09 02:14:02;;;;;;;8.70;7.43;;;;;;;;;;4951267;28;20191;-74
2023/09/09 02:16:27;;;;;;;8.60;7.70;;;;;;;;;;4952264;28;20175;-75
2023/09/09 02:18:53;;;;;;;7.67;6.77;;;;;;;;;;4954861;28;20199;-74
2023/09/09 02:21:19;;;;;;;7.57;6.87;;;;;;;;;;4954368;28;20237;-74
2023/09/09 02:23:44;;;;;;;8.00;7.30;;;;;;;;;;4950846;28;20210;-74
2023/09/09 02:26:10;;;;;;;8.30;7.50;;;;;;;;;;4952746;28;20184;-75
2023/09/09 02:28:35;;;;;;;7.70;7.00;;;;;;;;;;4955044;28;20187;-74
2023/09/09 02:31:00;;;;;;;8.23;7.03;;;;;;;;;;4951088;28;20199;-75
2023/09/09 02:33:25;;;;;;;7.90;7.10;;;;;;;;;;4951284;28;20207;-74
2023/09/09 02:35:51;;;;;;;8.43;7.40;;;;;;;;;;4954215;28;20227;-74
2023/09/09 02:38:16;;;;;;;7.70;6.90;;;;;;;;;;4954916;28;20208;-74
2023/09/09 02:40:41;;;;;;;8.10;7.40;;;;;;;;;;4970168;28;20264;-75
2023/09/09 02:43:06;;;;;;;8.47;7.67;;;;;;;;;;4948305;28;20179;-75
2023/09/09 02:45:32;;;;;;;8.33;7.00;;;;;;;;;;4952771;28;20213;-75
2023/09/09 02:47:57;;;;;;;7.77;7.00;;;;;;;;;;4953843;28;20212;-74
2023/09/09 02:50:23;;;;;;;7.67;6.93;;;;;;;;;;4971410;28;20171;-74
2023/09/09 02:52:48;;;;;;;8.23;7.43;;;;;;;;;;4953660;28;20182;-75
2023/09/09 02:55:13;;;;;;;8.20;7.50;;;;;;;;;;4969495;28;20197;-75
2023/09/09 02:57:38;;;;;;;8.23;7.43;;;;;;;;;;4969422;28;20199;-75
2023/09/09 03:00:06;;;;;;;7.67;6.97;;;;;;;;;;4949979;28;20221;-74
2023/09/09 03:02:31;;;;;;;7.67;6.97;;;;;;;;;;4953330;28;20169;-74
2023/09/09 03:04:57;;;;;;;8.20;7.33;;;;;;;;;;4953489;28;20177;-74
2023/09/09 03:07:22;;;;;;;13.03;7.77;;;;;;;;;;4970493;28;20198;-75
2023/09/09 03:09:48;;;;;;;7.40;6.70;;;;;;;;;;4966909;28;20201;-75
2023/09/09 03:12:16;;;;;;;8.10;7.30;;;;;;;;;;4965406;28;20171;-74
2023/09/09 03:14:41;;;;;;;7.93;7.23;;;;;;;;;;4950508;28;20480;-74
2023/09/09 03:17:07;;;;;;;7.90;6.83;;;;;;;;;;4951147;28;20180;-74
2023/09/09 03:19:32;;;;;;;7.33;6.63;;;;;;;;;;4957118;28;20206;-74
2023/09/09 03:21:57;;;;;;;7.60;6.90;;;;;;;;;;4957756;28;20316;-75
2023/09/09 03:24:22;;;;;;;7.67;6.97;;;;;;;;;;4953616;28;20217;-74
2023/09/09 03:26:48;;;;;;;7.50;6.80;;;;;;;;;;4953708;28;20225;-75
2023/09/09 03:29:13;;;;;;;8.10;7.33;;;;;;;;;;4951803;28;20256;-74
2023/09/09 03:31:38;;;;;;;8.80;7.37;;;;;;;;;;4955137;28;20236;-75
2023/09/09 03:34:03;;;;;;;7.77;6.73;;;;;;;;;;4947828;28;20273;-74
2023/09/09 03:36:29;;;;;;;8.60;7.70;;;;;;;;;;4949871;28;20176;-74
2023/09/09 03:38:54;;;;;;;7.70;6.97;;;;;;;;;;4950694;28;20268;-74
2023/09/09 03:41:19;;;;;;;8.37;7.57;;;;;;;;;;4954130;28;20189;-75
2023/09/09 03:43:44;;;;;;;8.20;7.40;;;;;;;;;;4947758;28;20194;-74
2023/09/09 03:46:10;;;;;;;7.73;7.03;;;;;;;;;;4948803;28;20177;-75
2023/09/09 03:48:35;;;;;;;9.87;7.27;;;;;;;;;;4954036;28;20254;-75
2023/09/09 03:51:01;;;;;;;8.17;7.30;;;;;;;;;;4960977;28;20186;-75
2023/09/09 03:53:27;;;;;;;8.90;7.10;;;;;;;;;;4951445;28;20249;-74
2023/09/09 03:55:52;;;;;;;10.10;7.00;;;;;;;;;;4952278;28;20188;-74
2023/09/09 03:58:17;;;;;;;9.77;6.73;;;;;;;;;;4951044;28;20210;-75
2023/09/09 04:00:46;;;;;;;8.57;7.10;;;;;;;;;;4955146;28;20195;-74
2023/09/09 04:03:11;;;;;;;7.57;6.87;;;;;;;;;;4951441;28;20221;-75
2023/09/09 04:05:37;;;;;;;7.37;6.67;;;;;;;;;;4951343;28;20197;-75
2023/09/09 04:08:03;;;;;;;7.73;6.93;;;;;;;;;;4954293;28;20185;-75
2023/09/09 04:10:28;;;;;;;9.63;6.50;;;;;;;;;;4952129;28;20181;-75
2023/09/09 04:12:54;;;;;;;12.87;8.20;;;;;;;;;;4953032;28;20183;-75
2023/09/09 04:15:19;;;;;;;8.33;7.43;;;;;;;;;;4952597;28;20179;-75
2023/09/09 04:17:44;;;;;;;7.90;7.10;;;;;;;;;;4952280;28;20206;-75
2023/09/09 04:20:09;;;;;;;7.87;7.07;;;;;;;;;;4951564;28;20176;-74
2023/09/09 04:22:35;;;;;;;8.87;8.07;;;;;;;;;;4954070;28;20205;-74
2023/09/09 04:25:00;;;;;;;7.83;7.13;;;;;;;;;;4951531;28;20185;-75
2023/09/09 04:27:25;;;;;;;8.73;7.93;;;;;;;;;;4957007;28;20178;-74
2023/09/09 04:29:51;;;;;;;8.90;8.20;;;;;;;;;;4952638;28;20206;-75
2023/09/09 04:32:16;;;;;;;8.83;8.00;;;;;;;;;;4951710;28;20183;-75
2023/09/09 04:34:41;;;;;;;8.60;7.80;;;;;;;;;;4954870;28;20252;-74
2023/09/09 04:37:06;;;;;;;8.80;7.97;;;;;;;;;;4953380;28;20177;-75
2023/09/09 04:39:31;;;;;;;12.00;8.47;;;;;;;;;;4970526;28;20197;-74
2023/09/09 04:41:57;;;;;;;9.27;7.97;;;;;;;;;;4958579;28;20174;-75
2023/09/09 04:44:22;;;;;;;8.10;7.40;;;;;;;;;;4971284;28;20236;-74
2023/09/09 04:46:47;;;;;;;8.50;7.63;;;;;;;;;;4956412;28;20204;-75
2023/09/09 04:49:12;;;;;;;8.67;7.93;;;;;;;;;;4954245;28;20189;-75
2023/09/09 04:51:38;;;;;;;9.27;7.97;;;;;;;;;;4951410;28;20182;-75
2023/09/09 04:54:03;;;;;;;8.57;7.87;;;;;;;;;;4954753;28;20182;-75
2023/09/09 04:56:28;;;;;;;9.00;8.20;;;;;;;;;;4953762;28;20190;-74
2023/09/09 04:58:53;;;;;;;9.73;8.80;;;;;;;;;;4955475;28;20209;-75
2023/09/09 05:01:18;;;;;;;8.50;7.80;;;;;;;;;;4953049;28;20186;-75
2023/09/09 05:03:44;;;;;;;17.10;8.07;;;;;;;;;;4955877;28;20204;-75
2023/09/09 05:06:09;;;;;;;8.33;7.53;;;;;;;;;;4954994;28;20265;-74
2023/09/09 05:08:34;;;;;;;12.07;8.87;;;;;;;;;;4956263;28;20224;-74
2023/09/09 05:10:59;;;;;;;9.90;7.80;;;;;;;;;;4952531;28;20186;-74
2023/09/09 05:13:25;;;;;;;19.57;9.43;;;;;;;;;;4955329;28;20299;-75
2023/09/09 05:15:50;;;;;;;8.10;7.33;;;;;;;;;;4955101;28;20204;-75
2023/09/09 05:18:16;;;;;;;9.10;8.30;;;;;;;;;;4957073;28;20405;-75
2023/09/09 05:20:41;;;;;;;9.13;8.23;;;;;;;;;;4954583;28;20191;-75
2023/09/09 05:23:06;;;;;;;9.67;8.10;;;;;;;;;;4954118;28;20180;-75
2023/09/09 05:25:31;;;;;;;8.27;7.47;;;;;;;;;;4957297;28;20178;-75
2023/09/09 05:27:56;;;;;;;8.90;7.63;;;;;;;;;;4954972;28;20205;-75
2023/09/09 05:30:22;;;;;;;9.87;8.97;;;;;;;;;;4954938;28;20561;-75
2023/09/09 05:32:47;;;;;;;9.07;8.27;;;;;;;;;;4955029;28;20186;-75
2023/09/09 05:35:12;;;;;;;8.33;7.53;;;;;;;;;;4947023;28;20241;-74
2023/09/09 05:37:38;;;;;;;8.53;7.73;;;;;;;;;;4955471;28;20189;-75
2023/09/09 05:40:04;;;;;;;8.50;7.77;;;;;;;;;;4951473;28;20198;-76
2023/09/09 05:42:29;;;;;;;8.37;7.60;;;;;;;;;;4952916;28;20180;-75
2023/09/09 05:44:54;;;;;;;9.20;7.73;;;;;;;;;;4948977;28;20177;-75
2023/09/09 05:47:20;;;;;;;9.67;8.43;;;;;;;;;;4951037;28;20182;-75
2023/09/09 05:49:45;;;;;;;15.00;9.17;;;;;;;;;;4951277;28;20179;-75
2023/09/09 05:52:12;;;;;;;9.60;7.93;;;;;;;;;;4950419;28;20280;-75
2023/09/09 05:54:37;;;;;;;8.33;7.53;;;;;;;;;;4952724;28;20222;-75
2023/09/09 05:57:04;;;;;;;8.70;7.90;;;;;;;;;;4953064;28;20201;-74
2023/09/09 05:59:29;;;;;;;8.70;7.80;;;;;;;;;;4949810;28;20246;-75
2023/09/09 06:01:55;;;;;;;9.20;8.30;;;;;;;;;;4949759;28;20211;-75
2023/09/09 06:04:20;;;;;;;8.43;7.73;;;;;;;;;;4950444;28;20239;-74
2023/09/09 06:06:45;;;;;;;9.10;8.20;;;;;;;;;;4949975;28;20180;-75
2023/09/09 06:09:11;;;;;;;9.73;8.77;;;;;;;;;;4944276;28;20210;-75
2023/09/09 06:11:36;;;;;;;9.50;8.70;;;;;;;;;;4943453;28;20175;-74
2023/09/09 06:14:01;;;;;;;9.17;8.33;;;;;;;;;;4945941;28;20255;-75
2023/09/09 06:16:27;;;;;;;13.67;8.97;;;;;;;;;;4949788;28;20180;-74
2023/09/09 06:18:52;;;;;;;10.17;8.47;;;;;;;;;;4949954;28;20200;-75
2023/09/09 06:21:17;;;;;;;8.47;7.50;;;;;;;;;;4954066;28;20269;-75
2023/09/09 06:23:42;;;;;;;8.93;8.03;;;;;;;;;;4952492;28;20165;-75
2023/09/09 06:26:08;;;;;;;8.70;7.90;;;;;;;;;;4948201;28;20191;-75
2023/09/09 06:28:33;;;;;;;9.30;8.47;;;;;;;;;;4949594;28;20441;-75
2023/09/09 06:30:58;;;;;;;11.00;8.40;;;;;;;;;;4948655;28;20208;-75
2023/09/09 06:33:24;;;;;;;8.77;7.70;;;;;;;;;;4947778;28;20210;-74
2023/09/09 06:35:50;;;;;;;8.63;7.70;;;;;;;;;;4953641;28;20193;-74
2023/09/09 06:38:15;;;;;;;8.83;8.13;;;;;;;;;;4967253;28;20283;-75
2023/09/09 06:40:42;;;;;;;8.63;7.90;;;;;;;;;;4951743;28;20568;-75
2023/09/09 06:43:08;;;;;;;8.57;7.87;;;;;;;;;;4951615;28;20248;-75
2023/09/09 06:45:33;;;;;;;10.43;8.57;;;;;;;;;;4957354;28;20207;-75
2023/09/09 06:47:58;;;;;;;9.20;8.40;;;;;;;;;;4954146;28;20215;-74
2023/09/09 06:50:23;;;;;;;14.40;9.20;;;;;;;;;;4960353;28;20242;-75
2023/09/09 06:52:49;;;;;;;9.13;8.23;;;;;;;;;;4965252;28;20234;-75
2023/09/09 06:55:14;;;;;;;10.47;8.90;;;;;;;;;;4964808;28;20186;-75
2023/09/09 06:57:39;;;;;;;8.27;7.57;;;;;;;;;;4949705;28;20185;-75
2023/09/09 07:00:05;;;;;;;8.87;8.07;;;;;;;;;;4968241;28;20178;-75
2023/09/09 07:02:30;;;;;;;9.93;8.67;;;;;;;;;;4969019;28;20197;-75
2023/09/09 07:04:55;;;;;;;8.87;8.07;;;;;;;;;;4954146;28;20183;-75
2023/09/09 07:07:20;;;;;;;9.40;8.53;;;;;;;;;;4954828;28;20187;-75
2023/09/09 07:09:46;;;;;;;9.97;8.73;;;;;;;;;;4968697;28;20176;-74
2023/09/09 07:12:11;;;;;;;7.77;7.10;;;;;;;;;;4951607;28;20181;-74
2023/09/09 07:14:36;;;;;;;8.50;7.70;;;;;;;;;;4955901;28;20181;-74
2023/09/09 07:17:03;;;;;;;8.77;7.97;;;;;;;;;;4947641;28;20309;-75
2023/09/09 07:19:28;;;;;;;11.07;9.00;;;;;;;;;;4962251;28;20234;-75
2023/09/09 07:21:53;;;;;;;9.10;8.20;;;;;;;;;;4960385;28;20214;-74
2023/09/09 07:24:19;;;;;;;9.50;8.52;;;;;;;;;;4955877;28;20263;-75
2023/09/09 07:26:44;;;;;;;9.93;8.57;;;;;;;;;;4959254;28;20417;-74
2023/09/09 07:29:09;;;;;;;9.47;8.67;;;;;;;;;;4959411;28;20285;-75
2023/09/09 07:31:34;;;;;;;8.63;7.70;;;;;;;;;;4962036;28;20195;-74
2023/09/09 07:33:59;;;;;;;8.45;7.63;;;;;;;;;;4955533;28;20279;-75
2023/09/09 07:36:25;;;;;;;17.40;8.00;;;;;;;;;;4966168;28;20179;-74
2023/09/09 07:38:51;;;;;;;8.98;8.18;;;;;;;;;;4963624;28;20205;-75
2023/09/09 07:41:16;;;;;;;9.68;7.18;;;;;;;;;;4959278;28;20176;-75
2023/09/09 07:43:42;;;;;;;9.30;6.97;;;;;;;;;;4959490;28;20255;-74
2023/09/09 07:46:08;;;;;;;7.60;6.90;;;;;;;;;;4975638;28;20187;-74
2023/09/09 07:48:33;;;;;;;8.50;7.30;;;;;;;;;;4976675;28;20173;-74
2023/09/09 07:50:59;;;;;;;6.47;5.88;;;;;;;;;;4959572;28;20215;-75
2023/09/09 07:53:24;;;;;;;7.55;6.85;;;;;;;;;;4958593;28;20180;-75
2023/09/09 07:55:50;;;;;;;6.15;5.65;;;;;;;;;;4959783;28;20324;-74
2023/09/09 07:58:16;;;;;;;6.65;6.15;;;;;;;;;;4957606;28;20295;-74
2023/09/09 08:00:42;;;;;;;7.20;6.32;;;;;;;;;;4979487;28;20175;-74
2023/09/09 08:03:10;;;;;;;7.00;6.30;;;;;;;;;;4962311;28;20176;-74
2023/09/09 08:05:35;;;;;;;7.68;6.65;;;;;;;;;;4960542;28;20173;-74
2023/09/09 08:08:00;;;;;;;6.75;5.97;;;;;;;;;;4964417;28;20189;-74
2023/09/09 08:10:25;;;;;;;10.60;7.47;;;;;;;;;;4960252;28;20184;-74
2023/09/09 08:12:51;;;;;;;7.38;6.68;;;;;;;;;;4959145;28;20291;-74
2023/09/09 08:15:16;;;;;;;7.63;6.93;;;;;;;;;;4960443;28;20275;-75
2023/09/09 08:17:41;;;;;;;6.50;5.82;;;;;;;;;;4974713;28;20192;-74
2023/09/09 08:20:07;;;;;;;8.55;6.45;;;;;;;;;;4958888;28;20187;-74
2023/09/09 08:22:36;;;;;;;6.55;5.85;;;;;;;;;;4974249;28;20179;-74
2023/09/09 08:25:02;;;;;;;6.90;6.30;;;;;;;;;;4975718;28;20180;-74
2023/09/09 08:27:27;;;;;;;7.63;6.20;;;;;;;;;;4958145;28;20269;-74
2023/09/09 08:29:52;;;;;;;7.97;6.93;;;;;;;;;;4955980;28;20275;-74
2023/09/09 08:32:18;;;;;;;6.75;6.15;;;;;;;;;;4955104;28;20185;-74
2023/09/09 08:34:43;;;;;;;7.53;6.93;;;;;;;;;;4954137;28;20232;-74
2023/09/09 08:37:09;;;;;;;7.35;6.57;;;;;;;;;;4970779;28;20268;-74
2023/09/09 08:39:34;;;;;;;6.50;5.90;;;;;;;;;;4951147;28;20232;-74
2023/09/09 08:42:07;;;;;;;6.50;5.90;;;;;;;;;;4960776;28;20203;-74
2023/09/09 08:44:46;;;;;;;8.85;6.68;;;;;;;;;;4959542;28;20181;-74
2023/09/09 08:47:11;;;;;;;7.63;6.47;;;;;;;;;;4968117;28;20232;-75
2023/09/09 08:49:38;;;;;;;7.85;6.03;;;;;;;;;;4970349;28;20219;-74
2023/09/09 08:52:08;;;;;;;8.38;6.45;;;;;;;;;;4957969;28;20181;-74
2023/09/09 08:54:34;;;;;;;6.93;6.28;;;;;;;;;;4956869;28;20180;-74
2023/09/09 08:57:00;;;;;;;6.97;6.38;;;;;;;;;;4952123;28;20173;-74
2023/09/09 08:59:27;;;;;;;8.13;7.32;;;;;;;;;;4961321;28;20293;-75
2023/09/09 09:01:53;;;;;;;7.28;6.63;;;;;;;;;;4955861;28;20181;-74
2023/09/09 09:04:18;;;;;;;7.90;6.90;;;;;;;;;;4971697;28;20209;-74
2023/09/09 09:06:46;;;;;;;7.65;6.95;;;;;;;;;;4961565;28;20192;-73
2023/09/09 09:09:12;;;;;;;8.27;6.95;;;;;;;;;;4954978;28;20423;-74
2023/09/09 09:11:37;;;;;;;7.38;6.78;;;;;;;;;;4954716;28;20245;-74
2023/09/09 09:14:07;;;;;;;7.43;6.63;;;;;;;;;;4951619;28;20192;-74
2023/09/09 09:16:32;;;;;;;9.57;7.03;;;;;;;;;;4961631;28;20286;-74
2023/09/09 09:19:02;;;;;;;7.50;6.80;;;;;;;;;;4969704;28;20236;-74
2023/09/09 09:21:32;;;;;;;7.47;6.78;;;;;;;;;;4955095;28;20177;-74
2023/09/09 09:23:57;;;;;;;7.47;6.78;;;;;;;;;;4972956;28;20255;-74
2023/09/09 09:26:27;;;;;;;7.32;6.63;;;;;;;;;;4955199;28;20328;-74
2023/09/09 09:28:52;;;;;;;7.13;6.53;;;;;;;;;;4955868;28;20854;-74
2023/09/09 09:31:21;;;;;;;6.82;6.22;;;;;;;;;;4957189;28;20224;-74
2023/09/09 09:33:47;;;;;;;7.68;6.88;;;;;;;;;;4953836;28;20232;-74
2023/09/09 09:36:15;;;;;;;7.40;6.63;;;;;;;;;;4950610;28;20177;-74
2023/09/09 09:38:40;;;;;;;7.78;7.07;;;;;;;;;;4948217;28;20208;-74
2023/09/09 09:41:05;;;;;;;7.82;6.47;;;;;;;;;;4959978;28;20184;-74
2023/09/09 09:43:31;;;;;;;7.40;6.70;;;;;;;;;;4953891;28;20311;-74
2023/09/09 09:46:11;;;;;;;7.35;6.60;;;;;;;;;;4954242;28;20259;-74
2023/09/09 09:48:37;;;;;;;6.82;6.22;;;;;;;;;;4953731;28;20227;-74
2023/09/09 09:51:02;;;;;;;7.03;6.43;;;;;;;;;;4965186;28;20244;-74
2023/09/09 09:53:28;;;;;;;8.27;6.47;;;;;;;;;;4956032;28;20184;-74
2023/09/09 09:55:55;;;;;;;7.13;6.47;;;;;;;;;;4969539;28;20199;-74
2023/09/09 09:58:21;;;;;;;9.15;6.20;;;;;;;;;;4964635;28;20241;-74
2023/09/09 10:00:47;;;;;;;8.13;7.43;;;;;;;;;;4949028;28;20201;-74
2023/09/09 10:03:13;;;;;;;7.28;6.57;;;;;;;;;;4953257;28;20187;-75
2023/09/09 10:05:39;;;;;;;6.70;6.18;;;;;;;;;;4961722;28;20312;-74
2023/09/09 10:08:07;;;;;;;7.85;6.75;;;;;;;;;;4968755;28;20268;-75
2023/09/09 10:10:33;;;;;;;6.88;6.28;;;;;;;;;;4952602;28;20251;-74
2023/09/09 10:13:02;;;;;;;8.55;6.65;;;;;;;;;;4970321;28;20185;-74
2023/09/09 10:15:30;;;;;;;7.10;6.40;;;;;;;;;;4969066;28;20243;-74
2023/09/09 10:17:56;;;;;;;8.23;6.45;;;;;;;;;;4971271;28;20200;-75
2023/09/09 10:20:22;;;;;;;8.50;6.18;;;;;;;;;;4972249;28;20179;-75
2023/09/09 10:22:48;;;;;;;7.32;6.68;;;;;;;;;;4951070;28;20173;-74
2023/09/09 10:25:13;;;;;;;6.82;6.25;;;;;;;;;;4953409;28;20177;-74
2023/09/09 10:27:40;;;;;;;8.35;6.78;;;;;;;;;;4957270;28;20173;-75
2023/09/09 10:30:07;;;;;;;6.88;6.13;;;;;;;;;;4953804;28;20188;-75
2023/09/09 10:32:34;;;;;;;7.55;6.88;;;;;;;;;;4949930;28;20181;-74
2023/09/09 10:34:59;;;;;;;7.43;6.82;;;;;;;;;;4949403;28;20237;-74
2023/09/09 10:37:26;;;;;;;7.25;6.57;;;;;;;;;;4949722;28;20182;-74
2023/09/09 10:39:52;;;;;;;7.22;6.53;;;;;;;;;;4949733;28;20205;-74
2023/09/09 10:42:18;;;;;;;6.60;5.82;;;;;;;;;;4948607;28;20197;-75
2023/09/09 10:44:48;;;;;;;22.50;7.38;;;;;;;;;;4950064;28;20181;-75
2023/09/09 10:47:14;;;;;;;6.35;5.57;;;;;;;;;;4947882;28;20174;-74
2023/09/09 10:49:39;;;;;;;7.85;7.10;;;;;;;;;;4946394;28;20265;-75
2023/09/09 10:52:04;;;;;;;8.75;6.90;;;;;;;;;;4946237;28;20181;-74
2023/09/09 10:54:29;;;;;;;8.32;6.60;;;;;;;;;;4947717;28;20182;-74
2023/09/09 10:56:57;;;;;;;7.85;6.47;;;;;;;;;;4948195;28;20190;-74
2023/09/09 10:59:24;;;;;;;11.57;7.25;;;;;;;;;;4942014;28;20225;-74
2023/09/09 11:02:08;;;;;;;7.05;6.10;;;;;;;;;;4950479;28;20192;-75
2023/09/09 11:04:36;;;;;;;8.32;6.60;;;;;;;;;;4949784;28;20587;-74
2023/09/09 11:07:13;;;;;;;9.45;7.68;;;;;;;;;;4952074;28;20170;-74
2023/09/09 11:09:38;;;;;;;8.13;7.35;;;;;;;;;;4952667;28;20177;-74
2023/09/09 11:12:11;;;;;;;8.02;6.95;;;;;;;;;;4953144;28;20187;-74
2023/09/09 11:14:36;;;;;;;8.23;7.45;;;;;;;;;;4949446;28;20613;-74
2023/09/09 11:17:01;;;;;;;7.60;6.80;;;;;;;;;;4947137;28;20188;-74
2023/09/09 11:19:28;;;;;;;10.27;7.10;;;;;;;;;;4947849;28;20249;-74
2023/09/09 11:21:55;;;;;;;11.45;7.72;;;;;;;;;;4949122;28;20177;-75
2023/09/09 11:24:20;;;;;;;7.72;6.93;;;;;;;;;;4953409;28;20273;-75
2023/09/09 11:26:49;;;;;;;8.77;6.70;;;;;;;;;;4953173;28;20241;-74
2023/09/09 11:29:15;;;;;;;8.77;7.15;;;;;;;;;;4951683;28;20174;-74
2023/09/09 11:31:40;;;;;;;7.70;7.10;;;;;;;;;;4947286;28;20181;-75
2023/09/09 11:34:05;;;;;;;11.32;7.80;;;;;;;;;;4945394;28;20260;-75
2023/09/09 11:36:31;;;;;;;9.13;6.82;;;;;;;;;;4952783;28;20441;-74
2023/09/09 11:38:57;;;;;;;11.57;7.15;;;;;;;;;;4950037;28;20202;-75
2023/09/09 11:41:24;;;;;;;7.38;6.15;;;;;;;;;;4948363;28;20178;-75
2023/09/09 11:44:06;;;;;;;7.45;6.68;;;;;;;;;;4949719;28;20185;-74
2023/09/09 11:46:41;;;;;;;6.80;6.30;;;;;;;;;;4948342;28;20188;-74
2023/09/09 11:49:07;;;;;;;10.93;7.70;;;;;;;;;;4948332;28;20240;-75
2023/09/09 11:51:33;;;;;;;8.15;7.10;;;;;;;;;;4946276;28;20182;-75
2023/09/09 11:54:02;;;;;;;15.32;7.47;;;;;;;;;;4941437;28;20174;-75
2023/09/09 11:56:27;;;;;;;8.05;7.03;;;;;;;;;;4947327;28;20232;-74
2023/09/09 11:58:53;;;;;;;10.30;6.70;;;;;;;;;;4946579;28;20209;-75
2023/09/09 12:01:22;;;;;;;7.35;6.65;;;;;;;;;;4949836;28;20178;-75
2023/09/09 12:03:50;;;;;;;6.47;5.88;;;;;;;;;;4948657;28;20256;-75
2023/09/09 12:06:20;;;;;;;6.53;5.93;;;;;;;;;;4945043;28;20179;-75
2023/09/09 12:08:46;;;;;;;7.00;6.28;;;;;;;;;;4952370;28;20181;-74
2023/09/09 12:11:12;;;;;;;7.50;6.70;;;;;;;;;;4958187;28;20182;-75
2023/09/09 12:13:37;;;;;;;7.15;6.53;;;;;;;;;;4952311;28;20236;-74
2023/09/09 12:16:04;;;;;;;7.68;6.30;;;;;;;;;;4952358;28;20213;-75
2023/09/09 12:18:30;;;;;;;8.90;6.38;;;;;;;;;;4962860;28;20284;-75
2023/09/09 12:20:59;;;;;;;7.47;6.63;;;;;;;;;;4952189;28;20212;-75
2023/09/09 12:23:25;;;;;;;7.32;6.63;;;;;;;;;;4945098;28;20204;-74
2023/09/09 12:25:50;;;;;;;8.07;5.90;;;;;;;;;;4952927;28;20184;-75
2023/09/09 12:28:17;;;;;;;7.07;6.38;;;;;;;;;;4952419;28;20181;-74
2023/09/09 12:30:42;;;;;;;8.32;6.10;;;;;;;;;;4949936;28;20214;-75
2023/09/09 12:33:09;;;;;;;7.35;6.60;;;;;;;;;;4950329;28;20208;-74
2023/09/09 12:35:35;;;;;;;6.93;6.30;;;;;;;;;;4970842;28;20315;-75
2023/09/09 12:38:00;;;;;;;7.20;6.50;;;;;;;;;;4974158;28;20216;-75
2023/09/09 12:40:26;;;;;;;7.28;6.10;;;;;;;;;;4969614;28;20177;-75
2023/09/09 12:42:54;;;;;;;8.75;6.80;;;;;;;;;;4954527;28;20178;-74
2023/09/09 12:45:22;;;;;;;9.18;6.03;;;;;;;;;;4968858;28;20180;-76
2023/09/09 12:47:49;;;;;;;9.27;6.63;;;;;;;;;;4969704;28;20184;-75
2023/09/09 12:50:15;;;;;;;6.90;6.20;;;;;;;;;;4953662;28;20522;-74
2023/09/09 12:52:43;;;;;;;8.57;6.45;;;;;;;;;;4952121;28;20200;-75
2023/09/09 12:55:08;;;;;;;7.15;6.53;;;;;;;;;;4969710;28;20201;-75
2023/09/09 12:57:33;;;;;;;8.57;6.13;;;;;;;;;;4955054;28;20204;-76
2023/09/09 12:59:59;;;;;;;7.25;6.18;;;;;;;;;;4950683;28;20197;-75
2023/09/09 13:02:24;;;;;;;8.52;6.55;;;;;;;;;;4972611;28;20188;-75
2023/09/09 13:04:49;;;;;;;8.98;6.47;;;;;;;;;;4972796;28;20180;-75
2023/09/09 13:07:14;;;;;;;7.68;6.13;;;;;;;;;;4957640;28;20458;-75
2023/09/09 13:09:40;;;;;;;6.80;6.13;;;;;;;;;;4955270;28;20218;-74
2023/09/09 13:12:05;;;;;;;7.68;6.80;;;;;;;;;;4956516;28;20261;-75
2023/09/09 13:14:30;;;;;;;8.88;5.97;;;;;;;;;;4966813;28;20190;-75
2023/09/09 13:16:55;;;;;;;12.43;6.70;;;;;;;;;;4950663;28;20185;-75
2023/09/09 13:19:21;;;;;;;7.40;6.25;;;;;;;;;;4961439;28;20205;-76
2023/09/09 13:21:46;;;;;;;7.55;6.80;;;;;;;;;;4952148;28;20185;-75
2023/09/09 13:24:11;;;;;;;7.10;6.40;;;;;;;;;;4957426;28;20223;-75
2023/09/09 13:26:36;;;;;;;7.78;5.93;;;;;;;;;;4956781;28;20173;-75
2023/09/09 13:29:02;;;;;;;6.63;6.00;;;;;;;;;;4956217;28;20648;-75
2023/09/09 13:31:27;;;;;;;10.90;6.63;;;;;;;;;;4967302;28;20173;-75
2023/09/09 13:33:52;;;;;;;7.25;6.10;;;;;;;;;;4960717;28;20521;-75
2023/09/09 13:36:17;;;;;;;7.43;5.93;;;;;;;;;;4953049;28;20177;-75
2023/09/09 13:38:43;;;;;;;6.47;5.90;;;;;;;;;;4952055;28;20216;-75
2023/09/09 13:41:08;;;;;;;8.73;6.40;;;;;;;;;;4955189;28;20267;-75
2023/09/09 13:43:34;;;;;;;6.93;5.68;;;;;;;;;;4954912;28;20235;-75
2023/09/09 13:45:59;;;;;;;7.25;6.22;;;;;;;;;;4954181;28;20260;-75
2023/09/09 13:48:24;;;;;;;9.93;6.03;;;;;;;;;;4970493;28;20185;-75
2023/09/09 13:50:49;;;;;;;8.65;6.85;;;;;;;;;;4957772;28;20187;-75
2023/09/09 13:53:15;;;;;;;7.03;6.38;;;;;;;;;;4953359;28;20207;-75
2023/09/09 13:55:40;;;;;;;8.40;6.72;;;;;;;;;;4954733;28;20197;-75
2023/09/09 13:58:05;;;;;;;10.30;6.15;;;;;;;;;;4955262;28;20208;-75
2023/09/09 14:00:30;;;;;;;7.55;6.75;;;;;;;;;;4954488;28;20177;-75
2023/09/09 14:02:55;;;;;;;8.27;6.88;;;;;;;;;;4956569;28;20173;-75
2023/09/09 14:05:21;;;;;;;7.10;6.38;;;;;;;;;;4980808;28;20231;-75
2023/09/09 14:07:46;;;;;;;6.82;6.20;;;;;;;;;;4958484;28;20271;-75
2023/09/09 14:10:11;;;;;;;9.27;7.00;;;;;;;;;;4951623;28;20182;-75
2023/09/09 14:12:41;;;;;;;8.65;6.53;;;;;;;;;;4957059;28;20368;-75
2023/09/09 14:15:06;;;;;;;8.07;6.50;;;;;;;;;;4966972;28;20184;-75
2023/09/09 14:17:31;;;;;;;7.55;5.75;;;;;;;;;;4964283;28;20173;-75
2023/09/09 14:19:56;;;;;;;6.65;5.90;;;;;;;;;;4955135;28;20244;-75
2023/09/09 14:22:22;;;;;;;7.03;6.22;;;;;;;;;;4953190;28;20189;-75
2023/09/09 14:24:47;;;;;;;7.38;6.57;;;;;;;;;;4950185;28;20211;-74
2023/09/09 14:27:12;;;;;;;27.85;8.63;;;;;;;;;;4968112;28;20174;-75
2023/09/09 14:29:37;;;;;;;8.85;6.40;;;;;;;;;;4952195;28;20220;-75
2023/09/09 14:32:04;;;;;;;6.95;6.28;;;;;;;;;;4956384;28;20188;-75